This is the latest recevied weather packets stored in our database for station/object K1FSY-9. If no packets are shown the sender has not sent any weather packets the latest 10 day(s).
| Time | Temp. | Humidity | Pressure | Rain* | Wind** | Luminosity | Snow |
|---|---|---|---|---|---|---|---|
| 1777824377 | 10.56° C | 46% | 1007.1 hPa | 0 mm | - | - | - |
| 1777820771 | 10.56° C | 50% | 1007.4 hPa | 0 mm | - | - | - |
| 1777818969 | 9.44° C | 51% | 1007.4 hPa | 0 mm | - | - | - |
| 1777817165 | 8.33° C | 57% | 1007.1 hPa | 0 mm | - | - | - |
| 1777815362 | 7.22° C | 61% | 1007.4 hPa | 0 mm | - | - | - |
| 1777813559 | 6.11° C | 66% | 1007.7 hPa | 0 mm | - | - | - |
| 1777811753 | 6.11° C | 66% | 1007.7 hPa | 0 mm | - | - | - |
| 1777809959 | 5° C | 70% | 1008.1 hPa | 0 mm | - | - | - |
| 1777804542 | 2.78° C | 74% | 1007.7 hPa | 0 mm | - | - | - |
| 1777800939 | 2.78° C | 74% | 1007.4 hPa | 0 mm | - | - | - |
| 1777799136 | 2.78° C | 72% | 1008.1 hPa | 0 mm | - | - | - |
| 1777797335 | 3.33° C | 71% | 1008.1 hPa | 0 mm | - | - | - |
| 1777795532 | 3.89° C | 68% | 1008.1 hPa | 0 mm | - | - | - |
| 1777793730 | 3.89° C | 65% | 1008.4 hPa | 0 mm | - | - | - |
| 1777790126 | 5° C | 61% | 1008.4 hPa | 0 mm | - | - | - |
| 1777788322 | 5° C | 60% | 1008.8 hPa | 0 mm | - | - | - |
| 1777781107 | 6.67° C | 57% | 1009.4 hPa | 0 mm | - | - | - |
| 1777775701 | 7.22° C | 60% | 1009.4 hPa | 1.27 mm | - | - | - |
| 1777773898 | 7.22° C | 56% | 1009.4 hPa | 1.27 mm | - | - | - |
| 1777770293 | 8.33° C | 52% | 1009.1 hPa | 1.27 mm | - | - | - |
| 1777761287 | 11.67° C | 50% | 1007.4 hPa | 1.27 mm | - | - | - |
| 1777759487 | 12.22° C | 49% | 1007.1 hPa | 1.27 mm | - | - | - |
| 1777755885 | 15° C | 47% | 1006.4 hPa | 1.27 mm | - | - | - |
| 1777754083 | 15° C | 48% | 1006.4 hPa | 1.27 mm | - | - | - |
| 1777752280 | 15° C | 48% | 1007.1 hPa | 1.27 mm | - | - | - |
* Rain latest 24 hours (hover to see other rain measurements)
** Current wind speed in m/s (hover to see current wind gust speed)